createdAt,value
2017-10-22T00:00:31.369Z,100789.51
2017-10-22T00:02:33.814Z,100784.61
2017-10-22T00:04:36.404Z,100789.09
2017-10-22T00:06:38.933Z,100783.35
2017-10-22T00:08:41.373Z,100785.13
2017-10-22T00:10:43.856Z,100778.78
2017-10-22T00:12:46.325Z,100774.40
2017-10-22T00:14:48.778Z,100768.98
2017-10-22T00:16:51.239Z,100764.00
2017-10-22T00:18:53.917Z,100767.64
2017-10-22T00:20:56.484Z,100766.80
2017-10-22T00:22:58.921Z,100764.00
2017-10-22T00:25:01.386Z,100760.03
2017-10-22T00:27:03.861Z,100757.75
2017-10-22T00:29:06.304Z,100755.56
2017-10-22T00:31:08.817Z,100756.07
2017-10-22T00:33:11.257Z,100757.84
2017-10-22T00:35:13.702Z,100754.33
2017-10-22T00:37:16.217Z,100743.61
2017-10-22T00:39:18.823Z,100756.29
2017-10-22T00:41:21.281Z,100751.72
2017-10-22T00:43:23.776Z,100758.48
2017-10-22T00:45:26.216Z,100754.01
2017-10-22T00:47:28.731Z,100752.66
2017-10-22T00:49:31.298Z,100748.69
2017-10-22T00:51:33.794Z,100748.27
2017-10-22T00:53:36.230Z,100747.34
2017-10-22T00:55:38.684Z,100746.92
2017-10-22T00:57:41.134Z,100748.27
2017-10-22T00:59:43.655Z,100749.20
2017-10-22T01:01:46.116Z,100747.85
2017-10-22T01:05:57.315Z,100744.73
2017-10-22T01:07:59.887Z,100746.59
2017-10-22T01:10:02.320Z,100745.23
2017-10-22T01:12:04.760Z,100739.83
2017-10-22T01:14:07.245Z,100743.38
2017-10-22T01:16:09.706Z,100743.08
2017-10-22T01:18:12.250Z,100743.50
2017-10-22T01:20:14.724Z,100747.55
2017-10-22T01:22:17.445Z,100740.80
2017-10-22T01:24:19.969Z,100738.48
2017-10-22T01:26:22.504Z,100734.42
2017-10-22T01:28:24.956Z,100730.91
2017-10-22T01:30:27.423Z,100738.48
2017-10-22T01:32:29.898Z,100731.42
2017-10-22T01:34:32.345Z,100734.12
2017-10-22T01:36:34.895Z,100729.66
2017-10-22T01:38:37.592Z,100731.84
2017-10-22T01:40:40.036Z,100731.42
2017-10-22T01:42:42.482Z,100732.77
2017-10-22T01:44:44.968Z,100733.20
2017-10-22T01:46:47.513Z,100730.07
2017-10-22T01:48:49.965Z,100732.77
2017-10-22T01:50:52.476Z,100729.66
2017-10-22T01:52:54.940Z,100733.20
2017-10-22T01:54:57.420Z,100725.59
2017-10-22T01:56:59.888Z,100722.47
2017-10-22T01:59:02.333Z,100718.41
2017-10-22T02:01:04.817Z,100716.13
2017-10-22T02:03:07.301Z,100716.55
2017-10-22T02:05:09.776Z,100710.72
2017-10-22T02:07:12.224Z,100712.59
2017-10-22T02:09:14.720Z,100706.25
2017-10-22T02:11:17.165Z,100710.72
2017-10-22T02:13:19.609Z,100712.17
2017-10-22T02:15:22.080Z,100704.05
2017-10-22T02:17:24.521Z,100710.81
2017-10-22T02:19:26.959Z,100710.81
2017-10-22T02:21:29.445Z,100709.97
2017-10-22T02:23:32.074Z,100717.16
2017-10-22T02:25:34.508Z,100714.03
2017-10-22T02:27:36.965Z,100710.48
2017-10-22T02:29:39.516Z,100711.84
2017-10-22T02:31:41.967Z,100713.19
2017-10-22T02:33:44.517Z,100703.31
2017-10-22T02:35:46.971Z,100710.06
2017-10-22T02:37:49.426Z,100712.77
2017-10-22T02:39:51.947Z,100707.78
2017-10-22T02:41:54.442Z,100701.02
2017-10-22T02:43:56.892Z,100709.68
2017-10-22T02:45:59.359Z,100703.31
2017-10-22T02:48:01.855Z,100703.31
2017-10-22T02:50:04.308Z,100697.09
2017-10-22T02:52:06.806Z,100698.45
2017-10-22T02:54:09.250Z,100701.56
2017-10-22T02:56:11.688Z,100699.25
2017-10-22T02:58:14.155Z,100693.84
2017-10-22T03:00:16.676Z,100690.33
2017-10-22T03:02:19.142Z,100682.64
2017-10-22T03:04:21.602Z,100674.11
2017-10-22T03:06:24.084Z,100675.88
2017-10-22T03:08:26.520Z,100668.80
2017-10-22T03:10:28.988Z,100672.76
2017-10-22T03:12:31.429Z,100667.86
2017-10-22T03:14:33.876Z,100670.98
2017-10-22T03:16:36.339Z,100660.69
2017-10-22T03:18:38.775Z,100661.29
2017-10-22T03:20:41.290Z,100666.52
2017-10-22T03:22:43.757Z,100651.73
2017-10-22T03:24:46.364Z,100666.60
2017-10-22T03:26:48.806Z,100659.01
2017-10-22T03:28:51.275Z,100652.66
2017-10-22T03:30:53.709Z,100656.21
2017-10-22T03:32:56.192Z,100649.96
2017-10-22T03:34:58.694Z,100654.95
2017-10-22T03:37:01.129Z,100650.47
2017-10-22T03:39:03.573Z,100656.72
2017-10-22T03:41:06.069Z,100641.94
2017-10-22T03:43:08.517Z,100650.98
2017-10-22T03:45:11.024Z,100664.41
2017-10-22T03:47:13.481Z,100661.29
2017-10-22T03:49:15.930Z,100664.92
2017-10-22T03:51:18.425Z,100666.80
2017-10-22T03:53:20.894Z,100682.50
2017-10-22T03:55:23.351Z,100674.52
2017-10-22T03:57:25.820Z,100674.39
2017-10-22T03:59:28.319Z,100677.22
2017-10-22T04:01:30.764Z,100674.09
2017-10-22T04:03:33.234Z,100673.16
2017-10-22T04:05:35.696Z,100677.22
2017-10-22T04:07:38.148Z,100677.22
2017-10-22T04:09:40.608Z,100672.74
2017-10-22T04:11:43.130Z,100674.52
2017-10-22T04:13:45.602Z,100679.50
2017-10-22T04:15:48.057Z,100674.61
2017-10-22T04:17:50.642Z,100668.27
2017-10-22T04:19:53.092Z,100660.16
2017-10-22T04:21:55.549Z,100658.39
2017-10-22T04:23:58.043Z,100659.31
2017-10-22T04:26:00.726Z,100652.14
2017-10-22T04:28:03.162Z,100652.66
2017-10-22T04:30:05.660Z,100655.77
2017-10-22T04:32:08.145Z,100655.88
2017-10-22T04:34:10.604Z,100651.81
2017-10-22T04:36:13.082Z,100646.41
2017-10-22T04:38:15.542Z,100650.46
2017-10-22T04:40:18.005Z,100651.39
2017-10-22T04:42:20.473Z,100643.70
2017-10-22T04:44:22.948Z,100643.28
2017-10-22T04:46:25.429Z,100638.81
2017-10-22T04:48:27.889Z,100650.05
2017-10-22T04:50:30.331Z,100640.16
2017-10-22T04:52:32.777Z,100637.45
2017-10-22T04:54:35.308Z,100637.88
2017-10-22T04:56:37.772Z,100639.74
2017-10-22T04:58:40.208Z,100637.03
2017-10-22T05:00:42.668Z,100638.81
2017-10-22T05:02:45.121Z,100638.81
2017-10-22T05:04:47.564Z,100642.06
2017-10-22T05:06:50.025Z,100634.34
2017-10-22T05:08:52.462Z,100638.52
2017-10-22T05:10:54.953Z,100640.80
2017-10-22T05:12:57.448Z,100634.55
2017-10-22T05:14:59.920Z,100637.67
2017-10-22T05:17:02.369Z,100628.73
2017-10-22T05:19:04.838Z,100631.85
2017-10-22T05:21:07.308Z,100638.61
2017-10-22T05:23:09.744Z,100637.77
2017-10-22T05:25:12.215Z,100635.58
2017-10-22T05:27:15.001Z,100639.12
2017-10-22T05:29:17.458Z,100633.72
2017-10-22T05:31:19.930Z,100650.45
2017-10-22T05:33:22.413Z,100637.86
2017-10-22T05:35:24.889Z,100649.09
2017-10-22T05:37:27.699Z,100653.66
2017-10-22T05:39:30.158Z,100645.97
2017-10-22T05:41:32.610Z,100654.09
2017-10-22T05:43:35.105Z,100658.66
2017-10-22T05:45:37.585Z,100659.20
2017-10-22T05:47:40.035Z,100657.72
2017-10-22T05:49:42.502Z,100656.50
2017-10-22T05:51:44.941Z,100654.21
2017-10-22T05:53:47.461Z,100662.70
2017-10-22T05:55:49.944Z,100658.27
2017-10-22T05:57:52.392Z,100659.07
2017-10-22T05:59:54.862Z,100658.27
2017-10-22T06:01:57.341Z,100661.36
2017-10-22T06:03:59.858Z,100653.25
2017-10-22T06:06:02.338Z,100654.21
2017-10-22T06:08:04.880Z,100658.36
2017-10-22T06:10:07.341Z,100660.13
2017-10-22T06:12:09.799Z,100657.94
2017-10-22T06:14:12.339Z,100652.02
2017-10-22T06:16:14.807Z,100664.70
2017-10-22T06:18:17.267Z,100662.00
2017-10-22T06:20:19.738Z,100657.52
2017-10-22T06:22:22.241Z,100671.88
2017-10-22T06:24:24.697Z,100661.67
2017-10-22T06:26:27.361Z,100665.30
2017-10-22T06:28:29.931Z,100664.37
2017-10-22T06:30:32.369Z,100669.27
2017-10-22T06:32:34.877Z,100675.09
2017-10-22T06:34:37.326Z,100668.42
2017-10-22T06:36:39.767Z,100666.14
2017-10-22T06:38:42.241Z,100669.88
2017-10-22T06:40:44.703Z,100677.98
2017-10-22T06:42:47.281Z,100676.12
2017-10-22T06:44:49.752Z,100684.23
2017-10-22T06:46:52.195Z,100686.94
2017-10-22T06:48:54.660Z,100682.45
2017-10-22T06:50:57.132Z,100687.86
2017-10-22T06:52:59.604Z,100685.16
2017-10-22T06:55:02.054Z,100690.56
2017-10-22T06:57:04.535Z,100695.55
2017-10-22T06:59:06.984Z,100690.56
2017-10-22T07:01:09.441Z,100691.50
2017-10-22T07:03:11.921Z,100698.67
2017-10-22T07:05:14.361Z,100702.73
2017-10-22T07:07:16.861Z,100704.92
2017-10-22T07:09:19.335Z,100700.96
2017-10-22T07:11:21.788Z,100703.66
2017-10-22T07:13:24.302Z,100708.14
2017-10-22T07:15:26.872Z,100708.66
2017-10-22T07:17:29.384Z,100711.36
2017-10-22T07:19:31.921Z,100709.91
2017-10-22T07:21:34.398Z,100712.32
2017-10-22T07:23:36.845Z,100708.66
2017-10-22T07:25:39.288Z,100714.48
2017-10-22T07:27:41.794Z,100709.48
2017-10-22T07:29:44.379Z,100711.78
2017-10-22T07:31:46.861Z,100706.38
2017-10-22T07:33:49.340Z,100712.20
2017-10-22T07:35:51.781Z,100715.41
2017-10-22T07:37:54.216Z,100716.67
2017-10-22T07:39:56.723Z,100715.41
2017-10-22T07:41:59.206Z,100717.73
2017-10-22T07:44:01.697Z,100718.66
2017-10-22T07:46:04.233Z,100716.38
2017-10-22T07:48:06.679Z,100716.89
2017-10-22T07:50:09.129Z,100717.73
2017-10-22T07:52:11.606Z,100720.95
2017-10-22T07:54:14.058Z,100714.60
2017-10-22T07:56:16.545Z,100716.38
2017-10-22T07:58:19.062Z,100728.54
2017-10-22T08:00:21.520Z,100726.77
2017-10-22T08:02:23.981Z,100722.72
2017-10-22T08:04:26.453Z,100729.89
2017-10-22T08:06:28.938Z,100722.30
2017-10-22T08:08:31.472Z,100726.35
2017-10-22T08:10:33.948Z,100729.98
2017-10-22T08:12:36.458Z,100728.00
2017-10-22T08:14:38.912Z,100728.13
2017-10-22T08:16:41.400Z,100738.94
2017-10-22T08:18:43.888Z,100733.11
2017-10-22T08:20:46.366Z,100733.11
2017-10-22T08:22:48.837Z,100728.13
2017-10-22T08:24:51.274Z,100724.06
2017-10-22T08:26:53.744Z,100722.30
2017-10-22T08:28:56.221Z,100728.54
2017-10-22T08:30:58.869Z,100731.24
2017-10-22T08:33:01.417Z,100725.42
2017-10-22T08:35:03.903Z,100731.24
2017-10-22T08:37:06.366Z,100732.05
2017-10-22T08:39:08.798Z,100741.00
2017-10-22T08:41:11.448Z,100741.94
2017-10-22T08:43:13.895Z,100742.87
2017-10-22T08:45:16.333Z,100750.46
2017-10-22T08:47:18.840Z,100745.05
2017-10-22T08:49:21.281Z,100744.64
2017-10-22T08:51:23.728Z,100741.00
2017-10-22T08:53:26.278Z,100741.42
2017-10-22T08:55:28.732Z,100741.42
2017-10-22T08:57:31.191Z,100751.81
2017-10-22T08:59:33.670Z,100757.64
2017-10-22T09:01:36.377Z,100751.30
2017-10-22T09:03:38.912Z,100750.88
2017-10-22T09:05:41.394Z,100752.23
2017-10-22T09:07:43.866Z,100755.45
2017-10-22T09:09:46.335Z,100758.06
2017-10-22T09:11:48.802Z,100754.42
2017-10-22T09:13:51.272Z,100759.41
2017-10-22T09:15:53.708Z,100764.40
2017-10-22T09:17:56.170Z,100765.75
2017-10-22T09:19:58.692Z,100766.17
2017-10-22T09:22:01.154Z,100770.74
2017-10-22T09:24:03.636Z,100768.97
2017-10-22T09:26:06.084Z,100768.45
2017-10-22T09:28:08.536Z,100770.74
2017-10-22T09:30:11.001Z,100767.62
2017-10-22T09:32:13.587Z,100765.34
2017-10-22T09:34:16.030Z,100779.27
2017-10-22T09:36:18.598Z,100772.52
2017-10-22T09:38:21.144Z,100772.52
2017-10-22T09:40:23.585Z,100769.81
2017-10-22T09:42:26.057Z,100773.86
2017-10-22T09:44:28.522Z,100776.15
2017-10-22T09:46:30.989Z,100768.55
2017-10-22T09:48:33.464Z,100772.61
2017-10-22T09:50:35.905Z,100769.48
2017-10-22T09:52:38.409Z,100769.48
2017-10-22T09:54:40.873Z,100775.31
2017-10-22T09:56:43.318Z,100768.97
2017-10-22T09:58:45.846Z,100770.74
2017-10-22T10:00:48.367Z,100771.25
2017-10-22T10:02:50.833Z,100780.20
2017-10-22T10:04:53.271Z,100773.02
2017-10-22T10:06:55.733Z,100766.78
2017-10-22T10:08:58.183Z,100776.98
2017-10-22T10:11:00.632Z,100771.16
2017-10-22T10:13:03.097Z,100776.56
2017-10-22T10:15:05.552Z,100772.09
2017-10-22T10:17:07.996Z,100778.34
2017-10-22T10:19:10.476Z,100776.47
2017-10-22T10:21:12.923Z,100772.93
2017-10-22T10:23:15.376Z,100778.76
2017-10-22T10:25:17.854Z,100783.23
2017-10-22T10:27:20.304Z,100778.25
2017-10-22T10:29:22.759Z,100775.55
2017-10-22T10:31:25.243Z,100777.31
2017-10-22T10:33:27.887Z,100779.09
2017-10-22T10:35:30.329Z,100782.30
2017-10-22T10:37:32.791Z,100784.08
2017-10-22T10:39:35.246Z,100789.06
2017-10-22T10:41:37.887Z,100783.56
2017-10-22T10:43:40.380Z,100777.22
2017-10-22T10:45:42.846Z,100782.21
2017-10-22T10:47:45.297Z,100783.98
2017-10-22T10:49:47.769Z,100779.80
2017-10-22T10:51:50.259Z,100786.05
2017-10-22T10:53:52.730Z,100791.03
2017-10-22T10:55:55.210Z,100793.32
2017-10-22T10:57:57.664Z,100786.98
2017-10-22T11:00:00.117Z,100796.77
2017-10-22T11:02:02.602Z,100786.56
2017-10-22T11:04:05.054Z,100792.81
2017-10-22T11:06:07.536Z,100796.35
2017-10-22T11:08:10.086Z,100793.32
2017-10-22T11:10:12.540Z,100789.69
2017-10-22T11:12:15.002Z,100791.45
2017-10-22T11:14:17.550Z,100785.63
2017-10-22T11:16:20.864Z,100797.38
2017-10-22T11:18:23.398Z,100794.25
2017-10-22T11:20:25.861Z,100787.49
2017-10-22T11:22:28.295Z,100790.11
2017-10-22T11:24:30.740Z,100800.08
2017-10-22T11:26:33.199Z,100791.45
2017-10-22T11:28:35.636Z,100784.70
2017-10-22T11:30:38.074Z,100794.58
2017-10-22T11:32:40.548Z,100793.23
2017-10-22T11:34:43.203Z,100798.12
2017-10-22T11:36:45.661Z,100794.07
2017-10-22T11:38:48.220Z,100792.72
2017-10-22T11:40:50.672Z,100795.75
2017-10-22T11:42:53.111Z,100795.33
2017-10-22T11:44:55.653Z,100793.47
2017-10-22T11:46:58.177Z,100791.57
2017-10-22T11:49:00.624Z,100796.56
2017-10-22T11:51:03.102Z,100796.17
2017-10-22T11:53:05.539Z,100782.65
2017-10-22T11:55:07.996Z,100790.77
2017-10-22T11:57:10.472Z,100795.75
2017-10-22T11:59:12.937Z,100790.64
2017-10-22T12:01:15.378Z,100792.11
2017-10-22T12:03:17.838Z,100794.81
2017-10-22T12:05:20.281Z,100793.86
2017-10-22T12:07:22.719Z,100794.27
2017-10-22T12:09:25.186Z,100798.66
2017-10-22T12:11:27.670Z,100803.55
2017-10-22T12:13:30.120Z,100794.61
2017-10-22T12:15:32.616Z,100802.72
2017-10-22T12:17:35.115Z,100799.08
2017-10-22T12:19:37.591Z,100798.56
2017-10-22T12:21:40.074Z,100798.98
2017-10-22T12:23:42.541Z,100797.13
2017-10-22T12:25:44.991Z,100797.55
2017-10-22T12:27:47.484Z,100793.48
2017-10-22T12:29:49.956Z,100794.30
2017-10-22T12:31:52.397Z,100792.52
2017-10-22T12:33:54.864Z,100792.94
2017-10-22T12:35:57.524Z,100797.55
2017-10-22T12:37:59.980Z,100788.08
2017-10-22T12:40:02.473Z,100788.38
2017-10-22T12:42:04.932Z,100791.59
2017-10-22T12:44:07.448Z,100794.20
2017-10-22T12:46:09.919Z,100790.14
2017-10-22T12:48:12.367Z,100794.95
2017-10-22T12:50:14.803Z,100799.01
2017-10-22T12:52:17.274Z,100799.42
2017-10-22T12:54:19.716Z,100800.14
2017-10-22T12:56:22.156Z,100800.56
2017-10-22T12:58:24.617Z,100809.52
2017-10-22T13:00:27.077Z,100808.16
2017-10-22T13:02:29.519Z,100812.64
2017-10-22T13:04:32.055Z,100818.98
2017-10-22T13:06:34.504Z,100812.64
2017-10-22T13:08:36.974Z,100823.45
2017-10-22T13:10:39.449Z,100820.84
2017-10-22T13:12:41.886Z,100823.97
2017-10-22T13:14:44.344Z,100826.67
2017-10-22T13:16:46.799Z,100827.19
2017-10-22T13:18:49.257Z,100830.73
2017-10-22T13:20:51.705Z,100832.50
2017-10-22T13:22:54.179Z,100828.95
2017-10-22T13:24:56.612Z,100832.08
2017-10-22T13:26:59.051Z,100841.64
2017-10-22T13:29:01.537Z,100842.05
2017-10-22T13:31:03.985Z,100839.86
2017-10-22T13:33:06.498Z,100839.47
2017-10-22T13:35:08.981Z,100844.89
2017-10-22T13:37:11.625Z,100846.75
2017-10-22T13:39:14.061Z,100849.03
2017-10-22T13:41:16.536Z,100849.03
2017-10-22T13:43:18.997Z,100849.03
2017-10-22T13:45:21.441Z,100848.70
2017-10-22T13:47:23.921Z,100846.00
2017-10-22T13:49:26.367Z,100852.76
2017-10-22T13:51:28.865Z,100855.98
2017-10-22T13:53:31.333Z,100859.94
2017-10-22T13:55:33.781Z,100860.96
2017-10-22T13:57:36.233Z,100863.66
2017-10-22T13:59:38.692Z,100866.88
2017-10-22T14:01:41.142Z,100862.83
2017-10-22T14:03:43.674Z,100866.28
2017-10-22T14:05:46.147Z,100869.49
2017-10-22T14:07:48.731Z,100862.73
2017-10-22T14:09:51.189Z,100869.08
2017-10-22T14:11:53.650Z,100869.91
2017-10-22T14:13:56.129Z,100874.91
2017-10-22T14:15:58.587Z,100871.78
2017-10-22T14:18:01.064Z,100876.25
2017-10-22T14:20:03.509Z,100874.06
2017-10-22T14:22:05.952Z,100872.83
2017-10-22T14:24:08.485Z,100882.30
2017-10-22T14:26:10.974Z,100884.45
2017-10-22T14:28:13.413Z,100881.37
2017-10-22T14:30:15.881Z,100872.83
2017-10-22T14:32:18.359Z,100890.83
2017-10-22T14:34:20.816Z,100884.58
2017-10-22T14:36:23.301Z,100885.42
2017-10-22T14:38:25.775Z,100887.70
2017-10-22T14:40:28.273Z,100891.64
2017-10-22T14:42:30.745Z,100892.18
2017-10-22T14:44:33.186Z,100889.48
2017-10-22T14:46:35.632Z,100888.94
2017-10-22T14:48:38.137Z,100887.70
2017-10-22T14:50:40.576Z,100888.13
2017-10-22T14:52:43.043Z,100891.22
2017-10-22T14:54:45.513Z,100888.13
2017-10-22T14:56:47.961Z,100896.23
2017-10-22T14:58:50.416Z,100898.94
2017-10-22T15:00:52.899Z,100899.75
2017-10-22T15:02:55.357Z,100902.16
2017-10-22T15:04:57.824Z,100903.51
2017-10-22T15:07:00.322Z,100906.30
2017-10-22T15:09:02.788Z,100908.92
2017-10-22T15:11:05.227Z,100912.13
2017-10-22T15:13:07.685Z,100915.77
2017-10-22T15:15:10.126Z,100927.00
2017-10-22T15:17:12.589Z,100931.15
2017-10-22T15:19:15.061Z,100920.75
2017-10-22T15:21:17.500Z,100919.91
2017-10-22T15:23:19.944Z,100941.13
2017-10-22T15:25:22.413Z,100937.58
2017-10-22T15:27:24.937Z,100936.23
2017-10-22T15:29:27.376Z,100939.86
2017-10-22T15:31:29.847Z,100944.46
2017-10-22T15:33:32.465Z,100949.87
2017-10-22T15:35:34.943Z,100944.46
2017-10-22T15:37:37.398Z,100948.09
2017-10-22T15:39:39.982Z,100948.09
2017-10-22T15:41:42.447Z,100950.80
2017-10-22T15:43:44.925Z,100952.66
2017-10-22T15:45:47.391Z,100952.24
2017-10-22T15:47:49.824Z,100955.78
2017-10-22T15:49:52.295Z,100958.07
2017-10-22T15:51:54.744Z,100964.41
2017-10-22T15:53:57.188Z,100963.56
2017-10-22T15:55:59.660Z,100965.76
2017-10-22T15:58:02.131Z,100963.98
2017-10-22T16:00:04.574Z,100963.56
2017-10-22T16:02:07.038Z,100966.36
2017-10-22T16:04:09.488Z,100977.09
2017-10-22T16:06:11.933Z,100975.73
2017-10-22T16:08:14.516Z,100978.86
2017-10-22T16:10:16.961Z,100975.31
2017-10-22T16:12:19.519Z,100983.00
2017-10-22T16:14:21.994Z,100982.58
2017-10-22T16:16:24.433Z,100984.77
2017-10-22T16:18:26.876Z,100987.06
2017-10-22T16:20:29.386Z,100995.17
2017-10-22T16:22:31.838Z,100996.52
2017-10-22T16:24:34.329Z,100999.73
2017-10-22T16:26:36.797Z,101007.34
2017-10-22T16:28:39.249Z,101010.55
2017-10-22T16:30:41.744Z,101003.91
2017-10-22T16:32:44.222Z,101007.43
2017-10-22T16:34:46.668Z,101011.48
2017-10-22T16:36:49.131Z,101009.74
2017-10-22T16:38:51.600Z,101012.45
2017-10-22T16:40:54.258Z,101015.15
2017-10-22T16:42:56.764Z,101013.37
2017-10-22T16:44:59.280Z,101018.78
2017-10-22T16:47:01.792Z,101019.72
2017-10-22T16:49:04.247Z,101025.21
2017-10-22T16:51:06.712Z,101025.63
2017-10-22T16:53:09.215Z,101028.42
2017-10-22T16:55:11.720Z,101036.03
2017-10-22T16:57:14.184Z,101033.84
2017-10-22T16:59:16.620Z,101039.24
2017-10-22T17:01:19.161Z,101037.47
2017-10-22T17:03:21.668Z,101048.70
2017-10-22T17:05:24.120Z,101048.70
2017-10-22T17:07:26.561Z,101053.69
2017-10-22T17:09:29.026Z,101052.76
2017-10-22T17:11:31.549Z,101053.69
2017-10-22T17:13:33.992Z,101053.78
2017-10-22T17:15:36.447Z,101063.23
2017-10-22T17:17:38.889Z,101058.38
2017-10-22T17:19:41.325Z,101057.95
2017-10-22T17:21:43.811Z,101060.66
2017-10-22T17:23:46.260Z,101066.48
2017-10-22T17:25:48.734Z,101065.14
2017-10-22T17:27:51.225Z,101068.34
2017-10-22T17:29:53.671Z,101071.89
2017-10-22T17:31:56.206Z,101069.19
2017-10-22T17:33:58.724Z,101074.69
2017-10-22T17:36:01.157Z,101073.84
2017-10-22T17:38:03.619Z,101071.05
2017-10-22T17:40:06.087Z,101080.09
2017-10-22T17:42:08.678Z,101072.07
2017-10-22T17:44:11.170Z,101084.75
2017-10-22T17:46:13.641Z,101082.46
2017-10-22T17:48:16.088Z,101088.37
2017-10-22T17:50:18.585Z,101087.45
2017-10-22T17:52:21.050Z,101089.31
2017-10-22T17:54:23.518Z,101092.02
2017-10-22T17:56:25.959Z,101101.05
2017-10-22T17:58:28.426Z,101097.93
2017-10-22T18:00:30.885Z,101100.63
2017-10-22T18:02:33.336Z,101101.98
2017-10-22T18:04:35.864Z,101105.66
2017-10-22T18:06:38.304Z,101107.39
2017-10-22T18:08:40.860Z,101108.74
2017-10-22T18:10:43.342Z,101112.92
2017-10-22T18:12:45.785Z,101113.85
2017-10-22T18:14:48.228Z,101111.15
2017-10-22T18:16:50.793Z,101118.33
2017-10-22T18:18:53.235Z,101113.60
2017-10-22T18:20:55.731Z,101126.11
2017-10-22T18:22:58.209Z,101126.52
2017-10-22T18:25:00.679Z,101124.75
2017-10-22T18:27:03.211Z,101124.33
2017-10-22T18:29:05.676Z,101123.40
2017-10-22T18:31:08.129Z,101119.43
2017-10-22T18:33:10.561Z,101123.91
2017-10-22T18:35:13.030Z,101122.14
2017-10-22T18:37:15.544Z,101128.05
2017-10-22T18:39:17.987Z,101126.70
2017-10-22T18:41:20.476Z,101124.42
2017-10-22T18:43:23.583Z,101119.64
2017-10-22T18:45:26.474Z,101122.34
2017-10-22T18:47:29.113Z,101130.45
2017-10-22T18:49:31.668Z,101126.40
2017-10-22T18:51:34.482Z,101122.85
2017-10-22T18:53:37.256Z,101126.91
2017-10-22T18:55:39.731Z,101133.24
2017-10-22T18:57:42.164Z,101131.38
2017-10-22T18:59:44.677Z,101135.44
2017-10-22T19:01:47.128Z,101142.70
2017-10-22T19:03:49.585Z,101143.13
2017-10-22T19:05:52.059Z,101146.77
2017-10-22T19:07:54.599Z,101144.56
2017-10-22T19:09:57.084Z,101141.44
2017-10-22T19:11:59.578Z,101143.81
2017-10-22T19:14:02.017Z,101143.30
2017-10-22T19:16:04.477Z,101137.05
2017-10-22T19:18:06.960Z,101138.83
2017-10-22T19:20:09.436Z,101139.75
2017-10-22T19:22:11.889Z,101138.41
2017-10-22T19:24:14.370Z,101138.41
2017-10-22T19:26:16.809Z,101136.66
2017-10-22T19:28:19.306Z,101141.64
2017-10-22T19:30:21.874Z,101147.56
2017-10-22T19:32:24.317Z,101146.63
2017-10-22T19:34:26.781Z,101147.98
2017-10-22T19:36:29.266Z,101145.28
2017-10-22T19:38:31.763Z,101153.39
2017-10-22T19:40:34.338Z,101154.32
2017-10-22T19:42:36.812Z,101152.97
2017-10-22T19:44:39.405Z,101151.70
2017-10-22T19:46:41.890Z,101160.66
2017-10-22T19:48:44.368Z,101158.46
2017-10-22T19:50:46.808Z,101156.69
2017-10-22T19:52:49.351Z,101166.15
2017-10-22T19:54:51.844Z,101167.50
2017-10-22T19:56:54.285Z,101162.09
2017-10-22T19:58:56.733Z,101168.86
2017-10-22T20:00:59.209Z,101174.27
2017-10-22T20:03:01.716Z,101175.70
2017-10-22T20:05:04.177Z,101170.71
2017-10-22T20:07:06.646Z,101174.34
2017-10-22T20:09:09.111Z,101178.41
2017-10-22T20:11:11.556Z,101183.39
2017-10-22T20:13:14.110Z,101175.28
2017-10-22T20:15:16.568Z,101179.87
2017-10-22T20:17:19.102Z,101180.27
2017-10-22T20:19:21.613Z,101183.39
2017-10-22T20:21:24.047Z,101184.44
2017-10-22T20:23:26.515Z,101183.08
2017-10-22T20:25:28.988Z,101183.50
2017-10-22T20:27:31.440Z,101188.58
2017-10-22T20:29:33.899Z,101189.92
2017-10-22T20:31:36.373Z,101191.70
2017-10-22T20:33:38.821Z,101187.73
2017-10-22T20:35:41.289Z,101199.89
2017-10-22T20:37:43.753Z,101192.20
2017-10-22T20:39:46.184Z,101194.48
2017-10-22T20:41:48.636Z,101201.25
2017-10-22T20:43:51.138Z,101206.23
2017-10-22T20:45:53.761Z,101204.97
2017-10-22T20:47:56.236Z,101208.94
2017-10-22T20:49:58.694Z,101205.39
2017-10-22T20:52:01.142Z,101209.44
2017-10-22T20:54:03.593Z,101208.09
2017-10-22T20:56:06.069Z,101211.30
2017-10-22T20:58:08.526Z,101206.32
2017-10-22T21:00:11.077Z,101209.95
2017-10-22T21:02:13.547Z,101210.37
2017-10-22T21:04:15.993Z,101205.09
2017-10-22T21:06:18.481Z,101214.42
2017-10-22T21:08:20.966Z,101207.25
2017-10-22T21:10:23.426Z,101210.49
2017-10-22T21:12:25.880Z,101217.76
2017-10-22T21:14:28.356Z,101218.27
2017-10-22T21:16:30.845Z,101218.69
2017-10-22T21:18:33.288Z,101218.18
2017-10-22T21:20:35.756Z,101217.33
2017-10-22T21:22:38.191Z,101215.98
2017-10-22T21:24:40.639Z,101217.33
2017-10-22T21:26:43.185Z,101219.61
2017-10-22T21:28:45.638Z,101225.02
2017-10-22T21:30:48.125Z,101216.41
2017-10-22T21:32:50.594Z,101226.80
2017-10-22T21:34:53.068Z,101225.95
2017-10-22T21:36:55.505Z,101222.73
2017-10-22T21:38:57.980Z,101223.16
2017-10-22T21:41:00.425Z,101225.95
2017-10-22T21:43:02.877Z,101223.67
2017-10-22T21:45:05.349Z,101215.14
2017-10-22T21:47:08.048Z,101217.00
2017-10-22T21:49:10.500Z,101219.28
2017-10-22T21:51:12.960Z,101225.11
2017-10-22T21:53:15.397Z,101230.17
2017-10-22T21:55:17.874Z,101233.42
2017-10-22T21:57:20.340Z,101240.59
2017-10-22T21:59:22.811Z,101232.38
2017-10-22T22:01:25.278Z,101234.66
2017-10-22T22:03:27.857Z,101241.83
2017-10-22T22:05:30.298Z,101239.64
2017-10-22T22:07:32.742Z,101243.81
2017-10-22T22:09:35.268Z,101245.16
2017-10-22T22:11:37.749Z,101246.00
2017-10-22T22:13:40.222Z,101246.94
2017-10-22T22:15:42.689Z,101246.09
2017-10-22T22:17:45.119Z,101247.44
2017-10-22T22:19:47.601Z,101245.67
2017-10-22T22:21:50.065Z,101251.92
2017-10-22T22:23:52.510Z,101252.84
2017-10-22T22:25:54.974Z,101252.84
2017-10-22T22:27:57.445Z,101255.55
2017-10-22T22:30:00.001Z,101254.70
2017-10-22T22:32:02.445Z,101253.36
2017-10-22T22:34:04.904Z,101253.36
2017-10-22T22:36:07.342Z,101254.80
2017-10-22T22:38:09.780Z,101250.73
2017-10-22T22:40:12.310Z,101254.37
2017-10-22T22:42:14.754Z,101249.81
2017-10-22T22:44:17.237Z,101248.13
2017-10-22T22:46:19.704Z,101254.80
2017-10-22T22:48:22.256Z,101253.52
2017-10-22T22:50:24.698Z,101255.30
2017-10-22T22:52:27.171Z,101248.54
2017-10-22T22:54:29.724Z,101252.09
2017-10-22T22:56:32.173Z,101249.47
2017-10-22T22:58:34.663Z,101251.25
2017-10-22T23:00:37.100Z,101248.97
2017-10-22T23:02:39.550Z,101248.13
2017-10-22T23:04:42.013Z,101242.30
2017-10-22T23:06:44.475Z,101236.08
2017-10-22T23:08:47.093Z,101237.42
2017-10-22T23:10:49.570Z,101236.50
2017-10-22T23:12:52.053Z,101241.48
2017-10-22T23:14:54.501Z,101241.98
2017-10-22T23:16:56.984Z,101240.55
2017-10-22T23:18:59.423Z,101246.05